Pan Amber — V7XS5 — position and weather

sailwx.info

Track history (hours):
 
Tides and Currents Weather Stations Pressure Air Temp Water Temp Dewpoint Dewpoint Depression Visibility Wind Speed Wind Dir Waves Ship Positions

Pan Amber

Last reported at 2017-Nov-27 10:36 UTC. Time now 2018-Jan-22 15:43 UTC.
Position S 06°55' E 112°44'.
Warning: this ship's position is 56 days out of date.

Length 189 m; draft 6.8 m.

Type: Cargo ship. MMSI: 538004560.

Date/timePositionNaut miles runAvg speedWind from/ knotsBaromVisibWave heightAir tempDewpointWater temp
2017-Nov-27 10:36S 06°55' E 112°44'111.6
2017-Nov-27 10:29S 06°56' E 112°43'1112.8
2017-Nov-27 09:39S 07°06' E 112°39'313.3
2017-Nov-27 09:25S 07°09' E 112°40'5 1.0
2017-Nov-27 04:36S 07°12' E 112°44'0 0.0
2017-Nov-27 04:24S 07°12' E 112°44'0 0.0
2017-Nov-27 04:00S 07°12' E 112°44'0 0.0
2017-Nov-27 01:06S 07°12' E 112°44'0 0.6
2017-Nov-27 01:00S 07°12' E 112°44'0 0.0
2017-Nov-26 16:30S 07°12' E 112°44'0 0.0
2017-Nov-26 11:33S 07°12' E 112°44'0 0.0
2017-Nov-26 00:48S 07°12' E 112°44'0 0.0
2017-Nov-26 00:30S 07°12' E 112°44'0 0.0
2017-Nov-24 18:54S 07°12' E 112°44'1 1.3
2017-Nov-24 18:25S 07°12' E 112°43'18 9.0
2017-Nov-24 16:24S 06°53' E 112°44'4 0.2
2017-Nov-23 23:13S 06°50' E 112°46'2 3.4
2017-Nov-23 22:42S 06°48' E 112°46'3 8.6
2017-Nov-23 22:22S 06°46' E 112°44'512.0
2017-Nov-23 21:56S 06°41' E 112°41'  
Track history (hours):
 
Tides and Currents Weather Stations Pressure Air Temp Water Temp Dewpoint Dewpoint Depression Visibility Wind Speed Wind Dir Waves Ship Positions

Pan Amber

Last reported at 2017-Nov-27 10:36 UTC. Time now 2018-Jan-22 15:43 UTC.
Position S 06°55' E 112°44'.
Warning: this ship's position is 56 days out of date.

Length 189 m; draft 6.8 m.

Type: Cargo ship. MMSI: 538004560.

Date/timePositionNaut miles runAvg speedWind from/ knotsBaromVisibWave heightAir tempDewpointWater temp
2017-Nov-27 10:36S 06°55' E 112°44'111.6
2017-Nov-27 10:29S 06°56' E 112°43'1112.8
2017-Nov-27 09:39S 07°06' E 112°39'313.3
2017-Nov-27 09:25S 07°09' E 112°40'5 1.0
2017-Nov-27 04:36S 07°12' E 112°44'0 0.0
2017-Nov-27 04:24S 07°12' E 112°44'0 0.0
2017-Nov-27 04:00S 07°12' E 112°44'0 0.0
2017-Nov-27 01:06S 07°12' E 112°44'0 0.6
2017-Nov-27 01:00S 07°12' E 112°44'0 0.0
2017-Nov-26 16:30S 07°12' E 112°44'0 0.0
2017-Nov-26 11:33S 07°12' E 112°44'0 0.0
2017-Nov-26 00:48S 07°12' E 112°44'0 0.0
2017-Nov-26 00:30S 07°12' E 112°44'0 0.0
2017-Nov-24 18:54S 07°12' E 112°44'1 1.3
2017-Nov-24 18:25S 07°12' E 112°43'18 9.0
2017-Nov-24 16:24S 06°53' E 112°44'4 0.2
2017-Nov-23 23:13S 06°50' E 112°46'2 3.4
2017-Nov-23 22:42S 06°48' E 112°46'3 8.6
2017-Nov-23 22:22S 06°46' E 112°44'512.0
2017-Nov-23 21:56S 06°41' E 112°41'  

Dump ship's entire track history